sensor_id;sensor_type;location;lat;lon;timestamp;pressure;altitude;pressure_sealevel;temperature;humidity
60832;BME280;46665;51.558;-0.448;2023-05-10T00:00:23;100476.72;;;10.12;100.00
60832;BME280;46665;51.558;-0.448;2023-05-10T00:02:49;100472.44;;;10.06;100.00
60832;BME280;46665;51.558;-0.448;2023-05-10T00:05:15;100477.28;;;10.09;100.00
60832;BME280;46665;51.558;-0.448;2023-05-10T00:07:40;100474.88;;;10.08;100.00
60832;BME280;46665;51.558;-0.448;2023-05-10T00:10:06;100484.88;;;10.12;100.00
60832;BME280;46665;51.558;-0.448;2023-05-10T00:12:31;100483.81;;;10.13;100.00
60832;BME280;46665;51.558;-0.448;2023-05-10T00:14:57;100478.63;;;10.12;100.00
60832;BME280;46665;51.558;-0.448;2023-05-10T00:17:22;100476.44;;;10.14;100.00
60832;BME280;46665;51.558;-0.448;2023-05-10T00:19:48;100483.81;;;10.13;100.00
60832;BME280;46665;51.558;-0.448;2023-05-10T00:22:13;100479.97;;;10.14;100.00
60832;BME280;46665;51.558;-0.448;2023-05-10T00:24:39;100483.22;;;10.16;100.00
60832;BME280;46665;51.558;-0.448;2023-05-10T00:27:04;100479.97;;;10.14;100.00
60832;BME280;46665;51.558;-0.448;2023-05-10T00:29:30;100481.88;;;10.14;100.00
60832;BME280;46665;51.558;-0.448;2023-05-10T00:31:55;100487.06;;;10.15;100.00
60832;BME280;46665;51.558;-0.448;2023-05-10T00:34:21;100487.31;;;10.14;100.00
60832;BME280;46665;51.558;-0.448;2023-05-10T00:36:46;100483.25;;;10.11;100.00
60832;BME280;46665;51.558;-0.448;2023-05-10T00:39:12;100482.16;;;10.12;100.00
60832;BME280;46665;51.558;-0.448;2023-05-10T00:41:37;100482.16;;;10.12;100.00
60832;BME280;46665;51.558;-0.448;2023-05-10T00:44:03;100479.75;;;10.11;100.00
60832;BME280;46665;51.558;-0.448;2023-05-10T00:46:29;100487.09;;;10.10;100.00
60832;BME280;46665;51.558;-0.448;2023-05-10T00:48:55;100484.38;;;10.10;100.00
60832;BME280;46665;51.558;-0.448;2023-05-10T00:51:20;100483.84;;;10.08;100.00
60832;BME280;46665;51.558;-0.448;2023-05-10T00:53:46;100488.97;;;10.10;100.00
60832;BME280;46665;51.558;-0.448;2023-05-10T00:56:12;100492.78;;;10.09;100.00
60832;BME280;46665;51.558;-0.448;2023-05-10T00:58:39;100494.44;;;10.05;100.00
60832;BME280;46665;51.558;-0.448;2023-05-10T01:01:05;100483.06;;;10.03;100.00
60832;BME280;46665;51.558;-0.448;2023-05-10T01:03:32;100491.22;;;10.03;100.00
60832;BME280;46665;51.558;-0.448;2023-05-10T01:05:57;100500.19;;;10.03;100.00
60832;BME280;46665;51.558;-0.448;2023-05-10T01:08:23;100492.56;;;10.00;100.00
60832;BME280;46665;51.558;-0.448;2023-05-10T01:10:49;100495.03;;;9.96;100.00
60832;BME280;46665;51.558;-0.448;2023-05-10T01:13:28;100500.22;;;9.98;100.00
60832;BME280;46665;51.558;-0.448;2023-05-10T01:15:56;100503.47;;;9.95;100.00
60832;BME280;46665;51.558;-0.448;2023-05-10T01:18:21;100501.88;;;9.89;100.00
60832;BME280;46665;51.558;-0.448;2023-05-10T01:20:49;100511.94;;;9.88;100.00
60832;BME280;46665;51.558;-0.448;2023-05-10T01:34:45;100502.72;;;9.79;100.00
60832;BME280;46665;51.558;-0.448;2023-05-10T01:37:17;100496.50;;;9.79;100.00
60832;BME280;46665;51.558;-0.448;2023-05-10T01:40:19;100504.66;;;9.73;100.00
60832;BME280;46665;51.558;-0.448;2023-05-10T01:43:03;100510.66;;;9.70;100.00
60832;BME280;46665;51.558;-0.448;2023-05-10T01:45:33;100515.28;;;9.70;100.00
60832;BME280;46665;51.558;-0.448;2023-05-10T01:48:06;100510.69;;;9.65;100.00
60832;BME280;46665;51.558;-0.448;2023-05-10T01:50:34;100509.34;;;9.63;100.00
60832;BME280;46665;51.558;-0.448;2023-05-10T01:53:01;100516.16;;;9.60;100.00
60832;BME280;46665;51.558;-0.448;2023-05-10T01:55:33;100511.56;;;9.50;100.00
60832;BME280;46665;51.558;-0.448;2023-05-10T01:58:13;100521.31;;;9.51;100.00
60832;BME280;46665;51.558;-0.448;2023-05-10T02:00:46;100511.84;;;9.44;100.00
60832;BME280;46665;51.558;-0.448;2023-05-10T02:03:13;100515.13;;;9.41;100.00
60832;BME280;46665;51.558;-0.448;2023-05-10T02:05:41;100525.16;;;9.40;100.00
60832;BME280;46665;51.558;-0.448;2023-05-10T02:08:07;100529.25;;;9.38;100.00
60832;BME280;46665;51.558;-0.448;2023-05-10T02:10:36;100533.06;;;9.31;100.00
60832;BME280;46665;51.558;-0.448;2023-05-10T02:13:05;100525.44;;;9.33;100.00
60832;BME280;46665;51.558;-0.448;2023-05-10T02:15:33;100532.53;;;9.29;100.00
60832;BME280;46665;51.558;-0.448;2023-05-10T02:18:00;100526.53;;;9.32;100.00
60832;BME280;46665;51.558;-0.448;2023-05-10T02:20:28;100531.16;;;9.32;100.00
60832;BME280;46665;51.558;-0.448;2023-05-10T02:22:55;100528.47;;;9.32;100.00
60832;BME280;46665;51.558;-0.448;2023-05-10T02:25:23;100518.66;;;9.31;100.00
60832;BME280;46665;51.558;-0.448;2023-05-10T02:27:50;100523.03;;;9.32;100.00
60832;BME280;46665;51.558;-0.448;2023-05-10T02:30:18;100533.59;;;9.33;100.00
60832;BME280;46665;51.558;-0.448;2023-05-10T02:32:45;100534.16;;;9.30;100.00
60832;BME280;46665;51.558;-0.448;2023-05-10T02:35:11;100528.47;;;9.32;100.00
60832;BME280;46665;51.558;-0.448;2023-05-10T02:37:37;100539.31;;;9.32;100.00
60832;BME280;46665;51.558;-0.448;2023-05-10T02:40:05;100543.09;;;9.31;100.00
60832;BME280;46665;51.558;-0.448;2023-05-10T02:42:33;100543.41;;;9.29;100.00
60832;BME280;46665;51.558;-0.448;2023-05-10T02:45:01;100545.56;;;9.27;100.00
60832;BME280;46665;51.558;-0.448;2023-05-10T02:47:28;100550.44;;;9.25;100.00
60832;BME280;46665;51.558;-0.448;2023-05-10T02:49:54;100555.34;;;9.18;100.00
60832;BME280;46665;51.558;-0.448;2023-05-10T02:52:23;100551.28;;;9.16;100.00
60832;BME280;46665;51.558;-0.448;2023-05-10T02:54:52;100560.22;;;9.16;100.00
60832;BME280;46665;51.558;-0.448;2023-05-10T02:57:26;100565.41;;;9.18;100.00
60832;BME280;46665;51.558;-0.448;2023-05-10T02:59:52;100551.28;;;9.10;100.00
60832;BME280;46665;51.558;-0.448;2023-05-10T03:02:18;100560.25;;;9.11;100.00
60832;BME280;46665;51.558;-0.448;2023-05-10T03:04:43;100567.88;;;9.09;100.00
60832;BME280;46665;51.558;-0.448;2023-05-10T03:07:09;100554.00;;;9.05;100.00
60832;BME280;46665;51.558;-0.448;2023-05-10T03:09:34;100554.56;;;9.02;100.00
60832;BME280;46665;51.558;-0.448;2023-05-10T03:14:45;100555.91;;;8.95;100.00
60832;BME280;46665;51.558;-0.448;2023-05-10T03:17:22;100561.91;;;8.92;100.00
60832;BME280;46665;51.558;-0.448;2023-05-10T03:19:56;100557.84;;;8.89;100.00
60832;BME280;46665;51.558;-0.448;2023-05-10T03:22:44;100555.94;;;8.84;100.00
60832;BME280;46665;51.558;-0.448;2023-05-10T03:25:11;100552.66;;;8.82;100.00
60832;BME280;46665;51.558;-0.448;2023-05-10T03:27:41;100557.28;;;8.77;100.00
60832;BME280;46665;51.558;-0.448;2023-05-10T03:30:10;100559.19;;;8.71;100.00
60832;BME280;46665;51.558;-0.448;2023-05-10T03:32:36;100561.59;;;8.67;100.00
60832;BME280;46665;51.558;-0.448;2023-05-10T03:35:09;100548.84;;;8.63;100.00
60832;BME280;46665;51.558;-0.448;2023-05-10T03:37:34;100552.41;;;8.58;100.00
60832;BME280;46665;51.558;-0.448;2023-05-10T03:40:00;100554.00;;;8.54;100.00
60832;BME280;46665;51.558;-0.448;2023-05-10T03:42:26;100570.00;;;8.51;100.00
60832;BME280;46665;51.558;-0.448;2023-05-10T03:44:51;100565.09;;;8.42;100.00
60832;BME280;46665;51.558;-0.448;2023-05-10T03:47:17;100568.09;;;8.41;100.00
60832;BME280;46665;51.558;-0.448;2023-05-10T03:49:42;100572.16;;;8.43;100.00
60832;BME280;46665;51.558;-0.448;2023-05-10T03:52:08;100577.03;;;8.41;100.00
60832;BME280;46665;51.558;-0.448;2023-05-10T03:54:33;100574.88;;;8.43;100.00
60832;BME280;46665;51.558;-0.448;2023-05-10T03:56:58;100574.84;;;8.38;100.00
60832;BME280;46665;51.558;-0.448;2023-05-10T03:59:25;100580.00;;;8.40;100.00
60832;BME280;46665;51.558;-0.448;2023-05-10T04:01:50;100585.19;;;8.41;100.00
60832;BME280;46665;51.558;-0.448;2023-05-10T04:04:16;100587.34;;;8.39;100.00
60832;BME280;46665;51.558;-0.448;2023-05-10T04:06:43;100591.66;;;8.40;100.00
60832;BME280;46665;51.558;-0.448;2023-05-10T04:09:09;100583.81;;;8.44;100.00
60832;BME280;46665;51.558;-0.448;2023-05-10T04:11:34;100591.41;;;8.42;100.00
60832;BME280;46665;51.558;-0.448;2023-05-10T04:13:59;100595.22;;;8.41;100.00
60832;BME280;46665;51.558;-0.448;2023-05-10T04:16:25;100594.63;;;8.39;100.00
60832;BME280;46665;51.558;-0.448;2023-05-10T04:18:50;100592.16;;;8.37;100.00
60832;BME280;46665;51.558;-0.448;2023-05-10T04:21:16;100594.63;;;8.39;100.00
60832;BME280;46665;51.558;-0.448;2023-05-10T04:23:41;100598.19;;;8.39;100.00
60832;BME280;46665;51.558;-0.448;2023-05-10T04:26:07;100599.50;;;8.37;100.00
60832;BME280;46665;51.558;-0.448;2023-05-10T04:28:33;100599.25;;;8.38;100.00
60832;BME280;46665;51.558;-0.448;2023-05-10T04:31:02;100601.13;;;8.38;100.00
60832;BME280;46665;51.558;-0.448;2023-05-10T04:33:28;100601.66;;;8.35;100.00
60832;BME280;46665;51.558;-0.448;2023-05-10T04:35:53;100604.66;;;8.33;100.00
60832;BME280;46665;51.558;-0.448;2023-05-10T04:38:19;100601.38;;;8.31;100.00
60832;BME280;46665;51.558;-0.448;2023-05-10T04:40:44;100605.72;;;8.32;100.00
60832;BME280;46665;51.558;-0.448;2023-05-10T04:43:09;100600.56;;;8.31;100.00
60832;BME280;46665;51.558;-0.448;2023-05-10T04:45:35;100606.53;;;8.33;100.00
60832;BME280;46665;51.558;-0.448;2023-05-10T04:48:00;100616.31;;;8.39;100.00
60832;BME280;46665;51.558;-0.448;2023-05-10T04:50:26;100615.25;;;8.40;100.00
60832;BME280;46665;51.558;-0.448;2023-05-10T04:52:51;100618.22;;;8.38;100.00
60832;BME280;46665;51.558;-0.448;2023-05-10T04:55:16;100628.03;;;8.44;100.00
60832;BME280;46665;51.558;-0.448;2023-05-10T04:57:42;100620.69;;;8.40;100.00
60832;BME280;46665;51.558;-0.448;2023-05-10T05:00:08;100627.47;;;8.42;100.00
60832;BME280;46665;51.558;-0.448;2023-05-10T05:02:33;100634.53;;;8.43;100.00
60832;BME280;46665;51.558;-0.448;2023-05-10T05:04:59;100634.53;;;8.43;100.00
60832;BME280;46665;51.558;-0.448;2023-05-10T05:07:24;100638.31;;;8.48;100.00
60832;BME280;46665;51.558;-0.448;2023-05-10T05:09:49;100647.28;;;8.53;100.00
60832;BME280;46665;51.558;-0.448;2023-05-10T05:12:15;100641.59;;;8.55;100.00
60832;BME280;46665;51.558;-0.448;2023-05-10T05:14:40;100645.44;;;8.59;100.00
60832;BME280;46665;51.558;-0.448;2023-05-10T05:17:06;100646.22;;;8.59;100.00
60832;BME280;46665;51.558;-0.448;2023-05-10T05:19:32;100652.47;;;8.60;100.00
60832;BME280;46665;51.558;-0.448;2023-05-10T05:21:57;100653.03;;;8.62;100.00
60832;BME280;46665;51.558;-0.448;2023-05-10T05:24:22;100644.88;;;8.62;100.00
60832;BME280;46665;51.558;-0.448;2023-05-10T05:26:48;100643.53;;;8.64;100.00
60832;BME280;46665;51.558;-0.448;2023-05-10T05:29:13;100659.25;;;8.67;100.00
60832;BME280;46665;51.558;-0.448;2023-05-10T05:31:39;100654.94;;;8.66;100.00
60832;BME280;46665;51.558;-0.448;2023-05-10T05:34:04;100661.19;;;8.72;100.00
60832;BME280;46665;51.558;-0.448;2023-05-10T05:36:30;100666.34;;;8.74;100.00
60832;BME280;46665;51.558;-0.448;2023-05-10T05:38:56;100669.88;;;8.74;100.00
60832;BME280;46665;51.558;-0.448;2023-05-10T05:41:22;100663.63;;;8.74;100.00
60832;BME280;46665;51.558;-0.448;2023-05-10T05:43:49;100662.28;;;8.76;100.00
60832;BME280;46665;51.558;-0.448;2023-05-10T05:46:14;100679.09;;;8.83;100.00
60832;BME280;46665;51.558;-0.448;2023-05-10T05:48:39;100669.09;;;8.84;100.00
60832;BME280;46665;51.558;-0.448;2023-05-10T05:51:05;100680.19;;;8.87;100.00
60832;BME280;46665;51.558;-0.448;2023-05-10T05:53:30;100679.94;;;8.84;100.00
60832;BME280;46665;51.558;-0.448;2023-05-10T05:55:58;100688.06;;;8.84;100.00
60832;BME280;46665;51.558;-0.448;2023-05-10T05:58:24;100686.72;;;8.86;100.00
60832;BME280;46665;51.558;-0.448;2023-05-10T06:00:51;100691.59;;;8.84;100.00
60832;BME280;46665;51.558;-0.448;2023-05-10T06:03:17;100686.44;;;8.88;100.00
60832;BME280;46665;51.558;-0.448;2023-05-10T06:05:43;100688.91;;;8.89;100.00
60832;BME280;46665;51.558;-0.448;2023-05-10T06:08:08;100680.75;;;8.95;100.00
60832;BME280;46665;51.558;-0.448;2023-05-10T06:10:33;100680.22;;;8.98;100.00
60832;BME280;46665;51.558;-0.448;2023-05-10T06:12:59;100687.28;;;9.04;100.00
60832;BME280;46665;51.558;-0.448;2023-05-10T06:15:25;100677.25;;;9.04;100.00
60832;BME280;46665;51.558;-0.448;2023-05-10T06:17:51;100682.13;;;9.02;100.00
60832;BME280;46665;51.558;-0.448;2023-05-10T06:20:16;100686.47;;;9.03;100.00
60832;BME280;46665;51.558;-0.448;2023-05-10T06:22:42;100694.09;;;9.06;100.00
60832;BME280;46665;51.558;-0.448;2023-05-10T06:25:08;100693.25;;;9.11;100.00
60832;BME280;46665;51.558;-0.448;2023-05-10T06:27:33;100688.66;;;9.11;100.00
60832;BME280;46665;51.558;-0.448;2023-05-10T06:29:59;100692.19;;;9.17;100.00
60832;BME280;46665;51.558;-0.448;2023-05-10T06:32:24;100693.81;;;9.23;100.00
60832;BME280;46665;51.558;-0.448;2023-05-10T06:34:50;100702.25;;;9.27;100.00
60832;BME280;46665;51.558;-0.448;2023-05-10T06:37:16;100695.16;;;9.31;100.00
60832;BME280;46665;51.558;-0.448;2023-05-10T06:39:41;100700.88;;;9.35;100.00
60832;BME280;46665;51.558;-0.448;2023-05-10T06:42:07;100704.13;;;9.37;100.00
60832;BME280;46665;51.558;-0.448;2023-05-10T06:44:32;100708.50;;;9.43;100.00
60832;BME280;46665;51.558;-0.448;2023-05-10T06:46:58;100707.13;;;9.40;100.00
60832;BME280;46665;51.558;-0.448;2023-05-10T06:49:23;100710.66;;;9.46;100.00
60832;BME280;46665;51.558;-0.448;2023-05-10T06:51:49;100706.31;;;9.50;100.00
60832;BME280;46665;51.558;-0.448;2023-05-10T06:54:14;100716.09;;;9.56;100.00
60832;BME280;46665;51.558;-0.448;2023-05-10T06:56:39;100709.84;;;9.61;100.00
60832;BME280;46665;51.558;-0.448;2023-05-10T06:59:05;100712.56;;;9.66;100.00
60832;BME280;46665;51.558;-0.448;2023-05-10T07:01:30;100718.25;;;9.69;100.00
60832;BME280;46665;51.558;-0.448;2023-05-10T07:03:55;100713.91;;;9.79;100.00
60832;BME280;46665;51.558;-0.448;2023-05-10T07:06:21;100720.44;;;9.77;100.00
60832;BME280;46665;51.558;-0.448;2023-05-10T07:08:47;100722.84;;;9.79;100.00
60832;BME280;46665;51.558;-0.448;2023-05-10T07:11:12;100729.09;;;9.80;100.00
60832;BME280;46665;51.558;-0.448;2023-05-10T07:13:37;100732.34;;;9.87;100.00
60832;BME280;46665;51.558;-0.448;2023-05-10T07:16:06;100736.16;;;9.96;100.00
60832;BME280;46665;51.558;-0.448;2023-05-10T07:18:33;100730.16;;;10.04;100.00
60832;BME280;46665;51.558;-0.448;2023-05-10T07:20:58;100732.84;;;10.09;100.00
60832;BME280;46665;51.558;-0.448;2023-05-10T07:23:24;100737.75;;;10.12;100.00
60832;BME280;46665;51.558;-0.448;2023-05-10T07:25:50;100743.75;;;10.09;100.00
60832;BME280;46665;51.558;-0.448;2023-05-10T07:28:19;100741.56;;;10.16;100.00
60832;BME280;46665;51.558;-0.448;2023-05-10T07:30:45;100741.84;;;10.05;100.00
60832;BME280;46665;51.558;-0.448;2023-05-10T07:33:12;100751.88;;;10.14;100.00
60832;BME280;46665;51.558;-0.448;2023-05-10T07:35:38;100747.00;;;10.16;100.00
60832;BME280;46665;51.558;-0.448;2023-05-10T07:38:03;100753.53;;;10.20;100.00
60832;BME280;46665;51.558;-0.448;2023-05-10T07:40:29;100756.75;;;10.23;100.00
60832;BME280;46665;51.558;-0.448;2023-05-10T07:42:55;100748.59;;;10.17;100.00
60832;BME280;46665;51.558;-0.448;2023-05-10T07:45:20;100762.75;;;10.19;100.00
60832;BME280;46665;51.558;-0.448;2023-05-10T07:47:46;100754.34;;;10.16;100.00
60832;BME280;46665;51.558;-0.448;2023-05-10T07:50:11;100756.78;;;10.28;100.00
60832;BME280;46665;51.558;-0.448;2023-05-10T07:52:37;100752.41;;;10.37;100.00
60832;BME280;46665;51.558;-0.448;2023-05-10T07:55:02;100751.28;;;10.38;100.00
60832;BME280;46665;51.558;-0.448;2023-05-10T07:57:28;100758.63;;;10.43;100.00
60832;BME280;46665;51.558;-0.448;2023-05-10T07:59:53;100755.34;;;10.46;100.00
60832;BME280;46665;51.558;-0.448;2023-05-10T08:02:18;100755.88;;;10.53;100.00
60832;BME280;46665;51.558;-0.448;2023-05-10T08:04:44;100749.34;;;10.59;100.00
60832;BME280;46665;51.558;-0.448;2023-05-10T08:07:10;100759.63;;;10.67;100.00
60832;BME280;46665;51.558;-0.448;2023-05-10T08:09:35;100752.81;;;10.70;100.00
60832;BME280;46665;51.558;-0.448;2023-05-10T08:12:01;100764.25;;;10.72;100.00
60832;BME280;46665;51.558;-0.448;2023-05-10T08:14:28;100767.50;;;10.79;100.00
60832;BME280;46665;51.558;-0.448;2023-05-10T08:16:54;100768.28;;;10.84;100.00
60832;BME280;46665;51.558;-0.448;2023-05-10T08:19:19;100768.25;;;10.90;100.00
60832;BME280;46665;51.558;-0.448;2023-05-10T08:21:46;100773.38;;;10.91;100.00
60832;BME280;46665;51.558;-0.448;2023-05-10T08:24:12;100773.97;;;10.88;100.00
60832;BME280;46665;51.558;-0.448;2023-05-10T08:26:37;100769.88;;;10.91;100.00
60832;BME280;46665;51.558;-0.448;2023-05-10T08:29:03;100773.41;;;10.86;100.00
60832;BME280;46665;51.558;-0.448;2023-05-10T08:31:28;100763.03;;;10.93;100.00
60832;BME280;46665;51.558;-0.448;2023-05-10T08:33:54;100765.22;;;10.96;100.00
60832;BME280;46665;51.558;-0.448;2023-05-10T08:36:19;100761.91;;;11.04;100.00
60832;BME280;46665;51.558;-0.448;2023-05-10T08:38:55;100775.50;;;11.10;100.00
60832;BME280;46665;51.558;-0.448;2023-05-10T08:41:21;100768.38;;;11.14;100.00
60832;BME280;46665;51.558;-0.448;2023-05-10T08:43:50;100776.28;;;11.15;100.00
60832;BME280;46665;51.558;-0.448;2023-05-10T08:46:17;100780.06;;;11.19;100.00
60832;BME280;46665;51.558;-0.448;2023-05-10T08:48:48;100780.81;;;11.30;100.00
60832;BME280;46665;51.558;-0.448;2023-05-10T08:51:18;100781.88;;;11.29;100.00
60832;BME280;46665;51.558;-0.448;2023-05-10T08:53:44;100777.28;;;11.30;100.00
60832;BME280;46665;51.558;-0.448;2023-05-10T08:56:10;100776.97;;;11.31;100.00
60832;BME280;46665;51.558;-0.448;2023-05-10T08:58:36;100773.94;;;11.38;100.00
60832;BME280;46665;51.558;-0.448;2023-05-10T09:01:02;100779.31;;;11.48;100.00
60832;BME280;46665;51.558;-0.448;2023-05-10T09:03:28;100789.56;;;11.61;100.00
60832;BME280;46665;51.558;-0.448;2023-05-10T09:05:53;100794.78;;;11.58;100.00
60832;BME280;46665;51.558;-0.448;2023-05-10T09:08:21;100789.34;;;11.58;100.00
60832;BME280;46665;51.558;-0.448;2023-05-10T09:10:50;100778.94;;;11.65;100.00
60832;BME280;46665;51.558;-0.448;2023-05-10T09:13:16;100779.97;;;11.69;100.00
60832;BME280;46665;51.558;-0.448;2023-05-10T09:15:44;100778.00;;;11.75;100.00
60832;BME280;46665;51.558;-0.448;2023-05-10T09:18:09;100770.13;;;11.73;100.00
60832;BME280;46665;51.558;-0.448;2023-05-10T09:20:35;100778.50;;;11.82;100.00
60832;BME280;46665;51.558;-0.448;2023-05-10T09:23:00;100777.41;;;11.88;100.00
60832;BME280;46665;51.558;-0.448;2023-05-10T09:25:26;100785.13;;;12.05;100.00
60832;BME280;46665;51.558;-0.448;2023-05-10T09:27:51;100786.25;;;12.04;100.00
60832;BME280;46665;51.558;-0.448;2023-05-10T09:30:28;100792.59;;;11.94;100.00
60832;BME280;46665;51.558;-0.448;2023-05-10T09:32:54;100780.22;;;12.07;100.00
60832;BME280;46665;51.558;-0.448;2023-05-10T09:35:21;100784.28;;;12.09;100.00
60832;BME280;46665;51.558;-0.448;2023-05-10T09:37:49;100784.97;;;12.20;100.00
60832;BME280;46665;51.558;-0.448;2023-05-10T09:40:17;100786.06;;;12.24;100.00
60832;BME280;46665;51.558;-0.448;2023-05-10T09:42:51;100783.84;;;12.26;100.00
60832;BME280;46665;51.558;-0.448;2023-05-10T09:45:17;100786.00;;;12.29;100.00
60832;BME280;46665;51.558;-0.448;2023-05-10T09:47:42;100783.03;;;12.26;100.00
60832;BME280;46665;51.558;-0.448;2023-05-10T09:50:09;100779.09;;;12.37;100.00
60832;BME280;46665;51.558;-0.448;2023-05-10T09:53:00;100791.88;;;12.42;100.00
60832;BME280;46665;51.558;-0.448;2023-05-10T09:55:42;100779.56;;;12.44;100.00
60832;BME280;46665;51.558;-0.448;2023-05-10T09:58:11;100789.50;;;12.59;100.00
60832;BME280;46665;51.558;-0.448;2023-05-10T10:00:45;100792.25;;;12.78;100.00
60832;BME280;46665;51.558;-0.448;2023-05-10T10:03:17;100794.19;;;12.77;100.00
60832;BME280;46665;51.558;-0.448;2023-05-10T10:05:43;100789.13;;;12.66;100.00
60832;BME280;46665;51.558;-0.448;2023-05-10T10:08:09;100792.63;;;12.71;100.00
60832;BME280;46665;51.558;-0.448;2023-05-10T10:10:35;100794.03;;;12.69;100.00
60832;BME280;46665;51.558;-0.448;2023-05-10T10:13:01;100783.59;;;12.71;100.00
60832;BME280;46665;51.558;-0.448;2023-05-10T10:15:27;100781.94;;;12.75;100.00
60832;BME280;46665;51.558;-0.448;2023-05-10T10:17:53;100782.84;;;12.89;100.00
60832;BME280;46665;51.558;-0.448;2023-05-10T10:20:21;100781.38;;;12.97;100.00
60832;BME280;46665;51.558;-0.448;2023-05-10T10:22:47;100788.00;;;12.91;100.00
60832;BME280;46665;51.558;-0.448;2023-05-10T10:25:15;100785.19;;;12.96;100.00
60832;BME280;46665;51.558;-0.448;2023-05-10T10:30:43;100778.94;;;12.95;100.00
60832;BME280;46665;51.558;-0.448;2023-05-10T10:35:55;100788.78;;;13.15;100.00
60832;BME280;46665;51.558;-0.448;2023-05-10T10:38:23;100783.63;;;13.33;100.00
60832;BME280;46665;51.558;-0.448;2023-05-10T10:40:48;100775.34;;;13.38;100.00
60832;BME280;46665;51.558;-0.448;2023-05-10T10:43:27;100783.03;;;13.36;100.00
60832;BME280;46665;51.558;-0.448;2023-05-10T10:48:39;100777.03;;;13.15;100.00
60832;BME280;46665;51.558;-0.448;2023-05-10T10:51:05;100778.38;;;13.17;100.00
60832;BME280;46665;51.558;-0.448;2023-05-10T10:53:31;100778.97;;;13.14;100.00
60832;BME280;46665;51.558;-0.448;2023-05-10T10:56:07;100772.09;;;13.17;100.00
60832;BME280;46665;51.558;-0.448;2023-05-10T10:58:35;100776.06;;;13.25;100.00
60832;BME280;46665;51.558;-0.448;2023-05-10T11:01:15;100768.78;;;13.39;100.00
60832;BME280;46665;51.558;-0.448;2023-05-10T11:03:41;100777.25;;;13.56;100.00
60832;BME280;46665;51.558;-0.448;2023-05-10T11:06:31;100772.25;;;13.77;100.00
60832;BME280;46665;51.558;-0.448;2023-05-10T11:08:57;100776.66;;;13.92;100.00
60832;BME280;46665;51.558;-0.448;2023-05-10T11:11:23;100763.34;;;14.32;100.00
60832;BME280;46665;51.558;-0.448;2023-05-10T11:13:49;100763.28;;;14.65;100.00
60832;BME280;46665;51.558;-0.448;2023-05-10T11:16:17;100775.34;;;14.78;100.00
60832;BME280;46665;51.558;-0.448;2023-05-10T11:19:02;100776.47;;;14.77;99.58
60832;BME280;46665;51.558;-0.448;2023-05-10T11:21:29;100775.66;;;14.62;97.58
60832;BME280;46665;51.558;-0.448;2023-05-10T11:23:56;100759.91;;;14.40;98.86
60832;BME280;46665;51.558;-0.448;2023-05-10T11:26:30;100778.34;;;14.21;97.17
60832;BME280;46665;51.558;-0.448;2023-05-10T11:28:55;100781.28;;;14.11;98.08
60832;BME280;46665;51.558;-0.448;2023-05-10T11:31:22;100784.84;;;13.92;100.00
60832;BME280;46665;51.558;-0.448;2023-05-10T11:33:50;100801.63;;;13.72;100.00
60832;BME280;46665;51.558;-0.448;2023-05-10T11:36:32;100796.09;;;13.39;100.00
60832;BME280;46665;51.558;-0.448;2023-05-10T11:38:58;100790.31;;;13.02;100.00
60832;BME280;46665;51.558;-0.448;2023-05-10T11:41:24;100795.28;;;12.76;100.00
60832;BME280;46665;51.558;-0.448;2023-05-10T11:43:52;100791.56;;;12.67;100.00
60832;BME280;46665;51.558;-0.448;2023-05-10T11:46:23;100783.44;;;12.62;100.00
60832;BME280;46665;51.558;-0.448;2023-05-10T11:48:50;100776.66;;;12.60;100.00
60832;BME280;46665;51.558;-0.448;2023-05-10T11:51:20;100782.00;;;12.70;100.00
60832;BME280;46665;51.558;-0.448;2023-05-10T11:53:45;100785.94;;;12.83;100.00
60832;BME280;46665;51.558;-0.448;2023-05-10T11:56:11;100784.25;;;13.06;100.00
60832;BME280;46665;51.558;-0.448;2023-05-10T11:58:37;100790.56;;;13.44;100.00
60832;BME280;46665;51.558;-0.448;2023-05-10T12:01:07;100783.00;;;13.74;100.00
60832;BME280;46665;51.558;-0.448;2023-05-10T12:03:33;100776.75;;;13.87;100.00
60832;BME280;46665;51.558;-0.448;2023-05-10T12:05:59;100782.91;;;13.79;100.00
60832;BME280;46665;51.558;-0.448;2023-05-10T12:08:27;100778.31;;;13.74;100.00
60832;BME280;46665;51.558;-0.448;2023-05-10T12:10:54;100785.03;;;13.82;100.00
60832;BME280;46665;51.558;-0.448;2023-05-10T12:13:28;100775.72;;;14.16;100.00
60832;BME280;46665;51.558;-0.448;2023-05-10T12:15:57;100773.19;;;14.47;100.00
60832;BME280;46665;51.558;-0.448;2023-05-10T12:18:23;100774.53;;;14.77;94.69
60832;BME280;46665;51.558;-0.448;2023-05-10T12:20:52;100777.97;;;14.83;93.78
60832;BME280;46665;51.558;-0.448;2023-05-10T12:23:20;100768.09;;;14.95;99.46
60832;BME280;46665;51.558;-0.448;2023-05-10T12:25:46;100774.38;;;15.10;96.30
60832;BME280;46665;51.558;-0.448;2023-05-10T12:28:12;100772.31;;;15.15;95.62
60832;BME280;46665;51.558;-0.448;2023-05-10T12:30:38;100770.16;;;15.26;92.14
60832;BME280;46665;51.558;-0.448;2023-05-10T12:33:11;100772.78;;;15.31;86.92
60832;BME280;46665;51.558;-0.448;2023-05-10T12:35:50;100776.22;;;15.37;86.95
60832;BME280;46665;51.558;-0.448;2023-05-10T12:38:33;100784.75;;;15.35;89.27
60832;BME280;46665;51.558;-0.448;2023-05-10T12:41:00;100780.28;;;15.39;92.88
60832;BME280;46665;51.558;-0.448;2023-05-10T12:43:26;100799.59;;;15.34;92.24
60832;BME280;46665;51.558;-0.448;2023-05-10T12:45:52;100792.31;;;15.16;91.26
60832;BME280;46665;51.558;-0.448;2023-05-10T12:48:17;100786.66;;;14.99;91.76
60832;BME280;46665;51.558;-0.448;2023-05-10T12:50:43;100801.72;;;14.87;91.43
60832;BME280;46665;51.558;-0.448;2023-05-10T12:53:08;100804.53;;;14.68;95.96
60832;BME280;46665;51.558;-0.448;2023-05-10T12:55:34;100804.31;;;14.37;98.32
60832;BME280;46665;51.558;-0.448;2023-05-10T12:57:59;100809.44;;;14.11;100.00